Time;durP1;ratioP1;P1;durP2;ratioP2;P2;SDS_P1;SDS_P2;PMS_P1;PMS_P2;Temp;Humidity;BMP_temperature;BMP_pressure;BME280_temperature;BME280_humidity;BME280_pressure;Samples;Min_cycle;Max_cycle;Signal;HPM_P1;HPM_P2
2021/03/26 00:01:00;;;;;;;78.25;29.23;;;3.30;86.70;;;;;;5049439;28;20045;-59
2021/03/26 00:03:30;;;;;;;84.55;30.27;;;3.30;86.90;;;;;;5030591;28;20717;-59
2021/03/26 00:06:04;;;;;;;84.07;29.30;;;3.30;86.90;;;;;;5046289;28;20515;-58
2021/03/26 00:08:31;;;;;;;78.00;28.25;;;3.30;86.40;;;;;;5035613;28;20037;-58
2021/03/26 00:10:58;;;;;;;73.03;27.08;;;3.30;86.90;;;;;;5047701;28;20435;-58
2021/03/26 00:13:25;;;;;;;73.60;27.58;;;3.20;87.40;;;;;;5040833;28;20673;-59
2021/03/26 00:15:52;;;;;;;77.32;27.20;;;3.20;86.50;;;;;;5013992;28;20497;-58
2021/03/26 00:18:18;;;;;;;79.65;28.08;;;3.20;87.20;;;;;;5040512;28;20063;-58
2021/03/26 00:20:45;;;;;;;75.53;26.58;;;3.20;87.40;;;;;;5028850;28;20171;-58
2021/03/26 00:23:12;;;;;;;66.75;26.50;;;3.20;86.80;;;;;;5031490;28;20049;-57
2021/03/26 00:25:39;;;;;;;73.13;26.73;;;3.20;86.20;;;;;;5022674;28;20070;-58
2021/03/26 00:28:06;;;;;;;82.13;29.13;;;3.20;87.80;;;;;;5049674;28;20550;-58
2021/03/26 00:30:34;;;;;;;68.72;27.05;;;3.10;86.70;;;;;;5049382;28;20041;-58
2021/03/26 00:33:04;;;;;;;75.85;27.60;;;3.10;87.30;;;;;;5023806;28;20052;-57
2021/03/26 00:35:31;;;;;;;82.35;27.38;;;3.00;87.50;;;;;;5014339;28;20152;-59
2021/03/26 00:37:57;;;;;;;81.20;27.30;;;3.00;88.00;;;;;;5040182;28;20049;-59
2021/03/26 00:40:24;;;;;;;76.85;27.55;;;3.00;88.40;;;;;;5050776;28;20045;-59
2021/03/26 00:42:51;;;;;;;74.57;27.67;;;3.00;88.30;;;;;;5038976;28;20040;-58
2021/03/26 00:45:22;;;;;;;66.25;25.17;;;3.00;88.10;;;;;;5023906;28;20045;-57
2021/03/26 00:47:49;;;;;;;72.45;28.20;;;2.90;88.10;;;;;;5035874;28;20041;-59
2021/03/26 00:50:30;;;;;;;69.15;26.60;;;2.90;87.40;;;;;;5046755;28;20040;-57
2021/03/26 00:52:59;;;;;;;71.35;25.88;;;2.80;87.90;;;;;;5048475;28;20098;-57
2021/03/26 00:55:26;;;;;;;74.20;26.33;;;2.90;88.70;;;;;;5028070;28;20069;-59
2021/03/26 00:57:53;;;;;;;72.18;25.83;;;2.80;88.90;;;;;;5033620;28;20045;-59
2021/03/26 01:00:23;;;;;;;70.05;24.25;;;2.80;88.10;;;;;;5032865;28;20041;-57
2021/03/26 01:02:50;;;;;;;64.50;23.67;;;2.80;88.30;;;;;;5040994;28;20041;-59
2021/03/26 01:05:25;;;;;;;76.38;24.23;;;2.80;88.50;;;;;;5035049;28;20755;-58
2021/03/26 01:07:51;;;;;;;66.25;22.02;;;2.70;88.30;;;;;;5051938;28;20048;-58
2021/03/26 01:10:23;;;;;;;60.92;23.08;;;2.70;87.90;;;;;;5031694;28;20045;-58
2021/03/26 01:12:50;;;;;;;58.63;22.73;;;2.70;89.70;;;;;;5033057;28;20511;-58
2021/03/26 01:15:20;;;;;;;71.22;24.00;;;2.60;89.80;;;;;;5034983;28;20041;-59
2021/03/26 01:17:50;;;;;;;65.97;24.55;;;2.60;89.70;;;;;;5047498;28;20045;-59
2021/03/26 01:20:22;;;;;;;58.03;22.23;;;2.60;88.40;;;;;;5034362;28;20128;-57
2021/03/26 01:22:50;;;;;;;72.55;24.83;;;2.50;89.10;;;;;;5028818;28;20049;-57
2021/03/26 01:25:23;;;;;;;64.90;23.08;;;2.50;90.00;;;;;;5034886;28;20053;-58
2021/03/26 01:28:03;;;;;;;62.80;23.25;;;2.50;89.70;;;;;;5032073;28;20047;-58
2021/03/26 01:30:31;;;;;;;57.67;22.23;;;2.50;90.10;;;;;;5037092;28;20045;-58
2021/03/26 01:32:59;;;;;;;62.10;22.15;;;2.50;89.80;;;;;;5038686;28;20041;-58
2021/03/26 01:35:30;;;;;;;63.10;22.70;;;2.40;89.70;;;;;;5032224;28;20618;-60
2021/03/26 01:37:59;;;;;;;57.50;22.88;;;2.40;90.10;;;;;;5048650;28;20076;-58
2021/03/26 01:40:31;;;;;;;73.40;24.02;;;2.40;90.40;;;;;;5024841;28;20045;-58
2021/03/26 01:43:10;;;;;;;62.88;22.15;;;2.40;90.30;;;;;;5022535;28;20053;-59
2021/03/26 01:45:39;;;;;;;64.68;23.88;;;2.40;90.10;;;;;;5049152;28;20045;-58
2021/03/26 01:48:09;;;;;;;66.97;23.30;;;2.30;90.20;;;;;;5006042;28;20068;-59
2021/03/26 01:50:39;;;;;;;58.25;22.08;;;2.30;90.40;;;;;;5044096;28;20056;-58
2021/03/26 01:53:07;;;;;;;61.63;23.13;;;2.30;90.40;;;;;;5019793;28;20110;-59
2021/03/26 01:55:51;;;;;;;63.58;22.80;;;2.30;90.70;;;;;;5025629;28;20054;-57
2021/03/26 01:58:24;;;;;;;69.85;23.35;;;2.30;90.80;;;;;;5033718;28;20072;-58
2021/03/26 02:00:55;;;;;;;62.13;23.05;;;2.20;90.70;;;;;;5033455;28;20542;-59
2021/03/26 02:03:32;;;;;;;59.22;22.23;;;2.20;90.80;;;;;;5040749;28;20041;-57
2021/03/26 02:06:08;;;;;;;68.03;23.88;;;2.20;90.70;;;;;;5032615;28;20134;-58
2021/03/26 02:08:41;;;;;;;57.28;23.40;;;2.10;90.60;;;;;;5039303;28;20098;-60
2021/03/26 02:11:29;;;;;;;58.58;22.40;;;2.10;91.00;;;;;;5051179;28;20045;-57
2021/03/26 02:13:59;;;;;;;57.25;20.08;;;2.10;90.90;;;;;;5033986;28;20180;-59
2021/03/26 02:16:31;;;;;;;58.88;21.10;;;2.10;90.70;;;;;;5032912;28;20496;-58
2021/03/26 02:19:44;;;;;;;52.92;21.08;;;2.10;90.70;;;;;;5037255;28;20143;-58
2021/03/26 02:22:14;;;;;;;57.92;21.38;;;2.10;91.10;;;;;;5046782;28;20045;-57
2021/03/26 02:24:46;;;;;;;59.83;21.70;;;2.00;91.10;;;;;;5019560;28;20052;-58
2021/03/26 02:27:19;;;;;;;54.92;20.10;;;2.00;91.10;;;;;;5049160;28;20032;-61
2021/03/26 02:29:47;;;;;;;54.42;19.85;;;2.00;91.40;;;;;;5028401;28;20041;-58
2021/03/26 02:32:35;;;;;;;55.88;21.95;;;2.00;91.60;;;;;;5055234;28;20040;-58
2021/03/26 02:35:52;;;;;;;48.63;20.60;;;2.00;91.80;;;;;;5036269;28;20086;-57
2021/03/26 02:38:34;;;;;;;60.53;20.92;;;1.90;91.50;;;;;;4969087;28;20077;-58
2021/03/26 02:41:16;;;;;;;55.13;20.30;;;1.90;91.70;;;;;;4969594;28;20418;-59
2021/03/26 02:44:22;;;;;;;53.08;20.63;;;1.90;91.80;;;;;;4950216;28;20047;-59
2021/03/26 02:47:23;;;;;;;50.70;21.02;;;1.90;91.50;;;;;;4954405;28;20141;-58
2021/03/26 02:50:17;;;;;;;54.17;19.90;;;1.90;91.50;;;;;;4954366;28;20055;-59
2021/03/26 02:53:00;;;;;;;51.97;19.17;;;1.90;91.80;;;;;;4952462;28;20097;-59
2021/03/26 02:55:34;;;;;;;62.25;19.85;;;1.80;91.50;;;;;;4970221;28;20051;-58
2021/03/26 02:58:11;;;;;;;57.85;19.55;;;1.80;91.80;;;;;;4969808;28;20094;-58
2021/03/26 03:00:45;;;;;;;53.35;18.67;;;1.80;91.60;;;;;;4968967;28;20051;-60
2021/03/26 03:03:22;;;;;;;53.53;18.40;;;1.80;91.50;;;;;;4968206;28;20043;-61
2021/03/26 03:06:07;;;;;;;55.28;19.27;;;1.80;91.70;;;;;;4966726;28;20039;-61
2021/03/26 03:08:57;;;;;;;47.30;17.77;;;1.80;91.60;;;;;;4972640;28;20054;-59
2021/03/26 03:11:33;;;;;;;51.33;18.42;;;1.70;91.30;;;;;;4958819;28;20135;-57
2021/03/26 03:14:41;;;;;;;48.03;16.58;;;1.70;91.60;;;;;;5019010;28;20102;-58
2021/03/26 03:17:36;;;;;;;46.03;16.98;;;1.70;91.60;;;;;;5031140;28;20114;-58
2021/03/26 03:20:31;;;;;;;54.08;18.25;;;1.70;91.70;;;;;;5030186;28;20049;-59
2021/03/26 03:23:15;;;;;;;51.50;18.17;;;1.70;92.00;;;;;;5030106;28;20049;-58
2021/03/26 03:26:29;;;;;;;46.65;16.02;;;1.70;92.10;;;;;;4985981;28;20062;-57
2021/03/26 03:29:11;;;;;;;45.33;16.95;;;1.70;91.70;;;;;;4989551;28;20050;-57
2021/03/26 03:32:10;;;;;;;49.75;17.40;;;1.60;92.20;;;;;;4985560;28;20065;-59
2021/03/26 03:34:44;;;;;;;51.35;17.85;;;1.60;92.10;;;;;;4980420;28;20082;-57
2021/03/26 03:37:20;;;;;;;50.85;18.00;;;1.60;92.10;;;;;;4974647;28;20136;-57
2021/03/26 03:40:08;;;;;;;42.38;17.25;;;1.60;92.10;;;;;;4979481;28;20046;-58
2021/03/26 03:42:56;;;;;;;43.75;16.50;;;1.60;91.90;;;;;;4987993;28;20125;-58
2021/03/26 03:45:49;;;;;;;48.33;17.42;;;1.50;92.30;;;;;;4988143;28;20394;-60
2021/03/26 03:48:56;;;;;;;44.45;16.80;;;1.50;92.70;;;;;;4933082;29;20077;-57
2021/03/26 03:51:41;;;;;;;50.40;17.63;;;1.50;92.50;;;;;;4933628;29;20143;-57
2021/03/26 03:54:23;;;;;;;46.40;17.92;;;1.40;92.40;;;;;;4919814;29;20051;-58
2021/03/26 03:56:57;;;;;;;50.72;17.52;;;1.40;92.80;;;;;;4915781;29;20519;-58
2021/03/26 03:59:34;;;;;;;42.90;16.02;;;1.40;93.10;;;;;;4931195;29;20151;-58
2021/03/26 04:02:22;;;;;;;38.10;16.60;;;1.40;93.20;;;;;;4930724;28;20196;-59
2021/03/26 04:05:14;;;;;;;44.47;17.10;;;1.40;93.20;;;;;;4965651;28;20039;-59
2021/03/26 04:07:51;;;;;;;44.63;16.75;;;1.40;93.30;;;;;;4962779;28;20050;-57
2021/03/26 04:10:19;;;;;;;39.45;16.73;;;1.40;93.20;;;;;;4952210;28;20050;-57
2021/03/26 04:12:51;;;;;;;46.63;17.08;;;1.40;93.40;;;;;;4967986;28;20058;-58
2021/03/26 04:15:32;;;;;;;44.17;15.80;;;1.40;93.60;;;;;;4951760;28;20054;-59
2021/03/26 04:18:11;;;;;;;44.50;17.00;;;1.40;93.60;;;;;;4944275;28;20133;-58
2021/03/26 04:21:07;;;;;;;44.80;15.40;;;1.40;93.20;;;;;;4934913;29;20130;-59
2021/03/26 04:24:12;;;;;;;36.35;15.18;;;1.30;93.20;;;;;;4935817;28;20046;-57
2021/03/26 04:27:28;;;;;;;40.88;16.02;;;1.30;93.00;;;;;;5019198;28;20470;-57
2021/03/26 04:30:27;;;;;;;42.53;15.80;;;1.20;93.70;;;;;;5016308;28;20103;-58
2021/03/26 04:33:03;;;;;;;50.47;16.65;;;1.20;94.10;;;;;;5006367;28;20136;-58
2021/03/26 04:35:30;;;;;;;49.08;18.60;;;1.20;94.20;;;;;;5012672;28;20041;-58
2021/03/26 04:38:24;;;;;;;48.15;17.63;;;1.20;94.20;;;;;;5010621;28;20037;-57
2021/03/26 04:41:00;;;;;;;51.63;18.23;;;1.20;94.10;;;;;;5041294;28;20103;-58
2021/03/26 04:43:46;;;;;;;52.90;18.55;;;1.20;94.20;;;;;;5017424;28;20046;-59
2021/03/26 04:46:53;;;;;;;54.50;18.95;;;1.20;93.80;;;;;;5022694;28;20045;-58
2021/03/26 04:49:36;;;;;;;68.97;21.33;;;1.20;94.20;;;;;;5015399;28;20060;-57
2021/03/26 04:52:06;;;;;;;57.65;20.85;;;1.20;94.30;;;;;;5032837;28;20037;-59
2021/03/26 04:55:01;;;;;;;55.47;18.83;;;1.20;94.50;;;;;;5001822;28;20056;-59
2021/03/26 04:57:59;;;;;;;56.35;19.40;;;1.20;94.50;;;;;;5027428;28;20056;-59
2021/03/26 05:00:56;;;;;;;55.55;19.63;;;1.20;94.90;;;;;;5010905;28;20489;-57
2021/03/26 05:03:37;;;;;;;51.65;19.02;;;1.20;95.00;;;;;;5004453;28;20029;-57
2021/03/26 05:06:15;;;;;;;55.85;20.70;;;1.30;95.30;;;;;;5014513;28;20049;-59
2021/03/26 05:09:11;;;;;;;53.17;18.77;;;1.30;95.10;;;;;;5015639;28;20103;-58
2021/03/26 05:12:02;;;;;;;50.85;18.60;;;1.30;95.30;;;;;;5031674;28;20150;-58
2021/03/26 05:14:39;;;;;;;46.28;19.35;;;1.30;95.10;;;;;;5017299;28;20057;-57
2021/03/26 05:17:41;;;;;;;53.22;19.75;;;1.40;95.40;;;;;;5016346;28;20053;-57
2021/03/26 05:20:27;;;;;;;54.90;19.73;;;1.40;95.40;;;;;;5011984;28;20099;-58
2021/03/26 05:23:36;;;;;;;55.78;19.98;;;1.50;95.70;;;;;;5045232;28;20599;-57
2021/03/26 05:26:21;;;;;;;48.58;19.90;;;1.50;95.50;;;;;;5023331;28;20188;-59
2021/03/26 05:29:06;;;;;;;57.05;20.83;;;1.50;95.60;;;;;;5014391;28;20041;-58
2021/03/26 05:32:15;;;;;;;61.97;21.58;;;1.50;95.50;;;;;;5025023;28;20173;-57
2021/03/26 05:35:28;;;;;;;45.78;18.13;;;1.50;95.50;;;;;;5020906;28;20064;-57
2021/03/26 05:38:29;;;;;;;51.80;18.20;;;1.60;95.50;;;;;;5035771;28;20084;-58
2021/03/26 05:41:39;;;;;;;45.17;18.25;;;1.60;95.00;;;;;;5015176;28;20497;-58
2021/03/26 05:44:36;;;;;;;39.22;15.65;;;1.70;95.90;;;;;;5031793;28;20045;-59
2021/03/26 05:47:20;;;;;;;35.65;15.60;;;1.70;95.70;;;;;;5015531;28;20045;-57
2021/03/26 05:50:02;;;;;;;43.00;14.82;;;1.80;95.70;;;;;;5007671;28;20045;-58
2021/03/26 05:52:58;;;;;;;46.40;16.40;;;1.90;95.40;;;;;;5011977;28;20057;-57
2021/03/26 05:55:49;;;;;;;37.90;15.15;;;2.00;95.40;;;;;;5005122;28;20072;-58
2021/03/26 05:58:51;;;;;;;39.08;14.68;;;2.00;95.00;;;;;;5013966;28;20057;-57
2021/03/26 06:01:26;;;;;;;42.05;15.38;;;2.10;94.90;;;;;;5031729;28;20073;-57
2021/03/26 06:04:29;;;;;;;37.90;14.93;;;2.20;94.80;;;;;;5015350;28;20049;-58
2021/03/26 06:07:36;;;;;;;38.67;14.18;;;2.30;94.60;;;;;;5030921;28;20056;-58
2021/03/26 06:10:33;;;;;;;36.00;14.80;;;2.30;94.40;;;;;;5030684;28;20079;-57
2021/03/26 06:13:43;;;;;;;43.95;16.30;;;2.50;94.00;;;;;;5016870;28;20044;-56
2021/03/26 06:17:02;;;;;;;40.95;16.02;;;2.60;93.90;;;;;;4919707;29;20087;-57
2021/03/26 06:20:25;;;;;;;39.70;16.77;;;2.70;93.40;;;;;;4891557;29;20061;-58
2021/03/26 06:23:48;;;;;;;44.80;16.08;;;2.80;92.90;;;;;;4885310;29;20544;-59
2021/03/26 06:26:39;;;;;;;43.47;15.27;;;3.00;92.90;;;;;;4883037;29;20060;-58
2021/03/26 06:29:35;;;;;;;36.72;14.80;;;3.10;92.70;;;;;;4887320;29;20044;-59
2021/03/26 06:32:23;;;;;;;45.97;16.67;;;3.20;92.50;;;;;;4894546;29;20057;-58
2021/03/26 06:35:08;;;;;;;48.00;17.38;;;3.20;92.70;;;;;;4887080;29;20092;-59
2021/03/26 06:38:14;;;;;;;61.58;22.30;;;3.30;92.40;;;;;;4878023;29;20057;-59
2021/03/26 06:40:59;;;;;;;121.43;35.20;;;3.50;92.30;;;;;;4891915;29;20068;-58
2021/03/26 06:43:49;;;;;;;60.88;21.10;;;3.60;92.10;;;;;;4877700;29;20052;-59
2021/03/26 06:46:50;;;;;;;46.38;16.50;;;3.70;92.00;;;;;;4877834;29;20056;-59
2021/03/26 06:49:48;;;;;;;39.80;15.55;;;3.90;92.10;;;;;;4891889;29;20125;-59
2021/03/26 06:52:52;;;;;;;38.78;14.93;;;4.10;91.00;;;;;;4884350;29;20449;-58
2021/03/26 06:55:56;;;;;;;45.53;16.88;;;4.20;90.50;;;;;;4947921;28;20061;-58
2021/03/26 06:58:44;;;;;;;34.33;14.30;;;4.30;90.00;;;;;;5048640;28;20060;-58
2021/03/26 07:01:49;;;;;;;34.60;13.07;;;4.50;88.80;;;;;;5031351;28;20041;-57
2021/03/26 07:05:03;;;;;;;36.28;13.70;;;4.60;87.70;;;;;;5032758;28;20091;-59
2021/03/26 07:07:39;;;;;;;41.45;14.00;;;4.80;86.80;;;;;;4968145;28;20423;-58
2021/03/26 07:10:31;;;;;;;30.30;12.30;;;4.90;86.40;;;;;;4969514;28;20117;-58
2021/03/26 07:13:30;;;;;;;43.03;15.87;;;5.10;86.10;;;;;;4966014;28;20042;-57
2021/03/26 07:16:40;;;;;;;33.22;13.43;;;5.20;86.20;;;;;;4973221;28;20039;-60
2021/03/26 07:19:45;;;;;;;40.45;13.65;;;5.40;85.10;;;;;;4956779;28;20562;-59
2021/03/26 07:22:32;;;;;;;447.38;167.07;;;5.50;84.60;;;;;;4968282;28;20055;-59
2021/03/26 07:25:14;;;;;;;130.18;53.95;;;5.70;85.40;;;;;;4970840;28;20057;-58
2021/03/26 07:27:43;;;;;;;44.63;20.23;;;5.90;84.70;;;;;;4961636;28;20103;-59
2021/03/26 07:30:36;;;;;;;39.88;15.32;;;6.00;83.50;;;;;;4990106;28;20057;-58
2021/03/26 07:33:36;;;;;;;32.97;14.50;;;6.10;83.80;;;;;;4957023;28;20051;-57
2021/03/26 07:36:24;;;;;;;39.97;16.92;;;6.30;83.60;;;;;;4956270;28;20430;-59
2021/03/26 07:39:16;;;;;;;43.47;15.43;;;6.50;83.60;;;;;;4980908;28;20054;-58
2021/03/26 07:42:10;;;;;;;41.08;15.52;;;6.60;82.50;;;;;;4970420;28;20071;-57
2021/03/26 07:45:05;;;;;;;46.33;16.17;;;6.70;81.50;;;;;;5005830;28;20056;-58
2021/03/26 07:48:09;;;;;;;53.45;15.20;;;6.90;81.60;;;;;;5049180;28;20041;-57
2021/03/26 07:50:49;;;;;;;36.58;15.05;;;7.00;80.10;;;;;;5032034;28;20041;-58
2021/03/26 07:53:33;;;;;;;148.65;51.75;;;7.20;81.00;;;;;;5041971;28;20441;-59
2021/03/26 07:56:22;;;;;;;48.78;18.90;;;7.40;78.50;;;;;;5014939;28;20059;-59
2021/03/26 07:59:03;;;;;;;39.25;15.75;;;7.50;78.80;;;;;;5029861;28;20410;-58
2021/03/26 08:01:49;;;;;;;42.55;15.88;;;7.70;77.70;;;;;;5039358;28;20045;-58
2021/03/26 08:04:23;;;;;;;41.25;15.00;;;7.80;77.40;;;;;;5044377;28;20476;-59
2021/03/26 08:06:56;;;;;;;34.30;13.65;;;8.00;76.40;;;;;;5044434;28;20041;-58
2021/03/26 08:09:48;;;;;;;35.28;14.48;;;8.10;75.80;;;;;;5032742;28;20033;-57
2021/03/26 08:12:25;;;;;;;39.63;14.82;;;8.20;75.60;;;;;;5051209;28;20419;-58
2021/03/26 08:15:13;;;;;;;43.00;14.75;;;8.40;74.80;;;;;;5040245;28;20377;-59
2021/03/26 08:18:02;;;;;;;37.38;14.55;;;8.50;73.90;;;;;;5045803;28;20063;-57
2021/03/26 08:20:45;;;;;;;40.25;15.30;;;8.70;72.80;;;;;;5031882;28;20091;-59
2021/03/26 08:23:29;;;;;;;41.80;14.13;;;8.80;72.90;;;;;;5028184;28;20388;-58
2021/03/26 08:25:58;;;;;;;39.35;16.48;;;9.00;72.60;;;;;;5047911;28;20044;-58
2021/03/26 08:28:27;;;;;;;35.77;14.70;;;9.20;72.10;;;;;;5051922;28;20404;-59
2021/03/26 08:31:02;;;;;;;43.00;15.20;;;9.30;71.30;;;;;;5033551;28;20282;-59
2021/03/26 08:33:53;;;;;;;37.33;14.55;;;9.40;70.50;;;;;;5051488;28;20060;-58
2021/03/26 08:36:54;;;;;;;42.13;16.48;;;9.60;70.90;;;;;;5033672;28;20070;-56
2021/03/26 08:39:20;;;;;;;39.33;14.32;;;9.80;70.70;;;;;;5070472;28;20036;-56
2021/03/26 08:41:55;;;;;;;34.35;12.85;;;10.00;69.30;;;;;;5055682;28;20045;-59
2021/03/26 08:44:24;;;;;;;37.75;14.02;;;10.10;67.10;;;;;;5046215;28;20090;-59
2021/03/26 08:46:55;;;;;;;38.67;13.27;;;10.30;67.90;;;;;;5048577;28;20484;-56
2021/03/26 08:49:22;;;;;;;39.20;14.30;;;10.50;66.90;;;;;;5048536;28;20045;-58
2021/03/26 08:52:00;;;;;;;35.50;13.75;;;10.60;66.00;;;;;;5037793;28;20420;-56
2021/03/26 08:54:41;;;;;;;38.38;14.52;;;10.70;65.70;;;;;;5047863;28;20041;-56
2021/03/26 08:57:46;;;;;;;40.03;14.57;;;10.90;65.80;;;;;;5036710;28;20057;-57
2021/03/26 09:00:15;;;;;;;42.22;14.13;;;11.00;64.60;;;;;;5046159;28;20041;-57
2021/03/26 09:03:18;;;;;;;36.63;14.52;;;11.20;64.70;;;;;;5049935;28;20749;-57
2021/03/26 09:06:31;;;;;;;36.90;13.35;;;11.30;64.30;;;;;;5044497;28;20032;-57
2021/03/26 09:09:25;;;;;;;37.03;13.43;;;11.50;63.10;;;;;;5058686;28;20050;-58
2021/03/26 09:12:00;;;;;;;36.53;13.75;;;11.50;63.00;;;;;;5023114;28;20096;-57
2021/03/26 09:14:45;;;;;;;41.97;15.82;;;11.70;63.70;;;;;;5048437;28;20369;-57
2021/03/26 09:17:25;;;;;;;43.55;15.88;;;11.80;62.70;;;;;;5051882;28;20041;-56
2021/03/26 09:19:52;;;;;;;37.58;14.65;;;12.00;63.10;;;;;;5019152;28;20393;-57
2021/03/26 09:22:55;;;;;;;35.10;15.02;;;12.10;61.30;;;;;;5041242;28;20064;-57
2021/03/26 09:25:43;;;;;;;40.60;14.93;;;12.30;62.20;;;;;;5027811;28;20042;-57
2021/03/26 09:28:21;;;;;;;40.63;15.23;;;12.40;60.80;;;;;;5041941;28;20041;-56
2021/03/26 09:31:20;;;;;;;43.03;16.40;;;12.50;60.50;;;;;;5052176;28;20056;-57
2021/03/26 09:34:36;;;;;;;38.13;14.35;;;12.50;60.30;;;;;;5035024;28;20040;-60
2021/03/26 09:37:16;;;;;;;42.25;14.80;;;12.70;60.20;;;;;;5045664;28;20106;-61
2021/03/26 09:39:47;;;;;;;38.55;13.18;;;12.90;59.20;;;;;;5047412;28;20056;-60
2021/03/26 09:42:40;;;;;;;42.40;15.45;;;12.90;59.30;;;;;;5035035;28;20052;-61
2021/03/26 09:45:22;;;;;;;42.72;14.50;;;13.00;58.90;;;;;;5031882;28;20057;-58
2021/03/26 09:48:07;;;;;;;37.50;13.10;;;13.20;58.00;;;;;;5034178;28;20064;-59
2021/03/26 09:50:41;;;;;;;33.97;12.90;;;13.40;58.90;;;;;;5047866;28;20126;-57
2021/03/26 09:53:12;;;;;;;39.42;14.57;;;13.60;57.50;;;;;;5043717;28;20041;-56
2021/03/26 09:55:41;;;;;;;38.58;14.75;;;13.70;56.80;;;;;;5049561;28;20127;-57
2021/03/26 09:58:20;;;;;;;41.05;13.05;;;13.80;56.50;;;;;;5023373;28;20059;-58
2021/03/26 10:01:08;;;;;;;38.28;13.82;;;13.90;56.30;;;;;;5050468;28;20049;-61
2021/03/26 10:04:01;;;;;;;34.58;14.27;;;14.10;56.20;;;;;;5035711;28;20419;-58
2021/03/26 10:07:13;;;;;;;34.53;13.10;;;14.20;55.90;;;;;;5042397;28;20053;-58
2021/03/26 10:09:50;;;;;;;36.63;13.88;;;14.30;55.90;;;;;;5038331;28;20792;-59
2021/03/26 10:12:25;;;;;;;39.05;13.68;;;14.40;55.40;;;;;;5012867;28;20049;-59
2021/03/26 10:15:03;;;;;;;37.95;14.35;;;14.60;55.00;;;;;;5039601;28;20076;-58
2021/03/26 10:17:57;;;;;;;38.50;15.35;;;14.70;54.80;;;;;;5031990;28;20142;-58
2021/03/26 10:20:38;;;;;;;37.53;15.48;;;14.80;54.40;;;;;;5036071;28;20436;-59
2021/03/26 10:23:37;;;;;;;38.08;15.25;;;15.00;54.30;;;;;;5021812;28;20116;-58
2021/03/26 10:26:18;;;;;;;41.05;13.98;;;15.10;54.40;;;;;;5036962;28;20811;-58
2021/03/26 10:28:55;;;;;;;37.95;15.60;;;15.20;54.80;;;;;;5048326;28;20045;-59
2021/03/26 10:31:34;;;;;;;34.20;14.60;;;15.30;53.70;;;;;;5051736;28;20048;-58
2021/03/26 10:34:05;;;;;;;38.03;14.10;;;15.50;52.80;;;;;;5031938;28;20098;-59
2021/03/26 10:36:38;;;;;;;36.10;13.63;;;15.60;52.00;;;;;;5039289;28;20041;-59
2021/03/26 10:39:09;;;;;;;37.40;14.35;;;15.70;52.00;;;;;;5046765;28;20064;-59
2021/03/26 10:41:51;;;;;;;37.33;13.65;;;15.90;51.20;;;;;;5048133;28;20041;-59
2021/03/26 10:44:36;;;;;;;39.42;14.43;;;15.90;51.50;;;;;;5046733;28;20036;-58
2021/03/26 10:47:24;;;;;;;42.70;16.17;;;16.10;51.40;;;;;;5025426;28;20045;-58
2021/03/26 10:49:59;;;;;;;38.13;13.65;;;16.30;50.40;;;;;;5026757;28;20049;-59
2021/03/26 10:52:53;;;;;;;35.42;14.30;;;16.40;50.80;;;;;;5035802;28;20045;-58
2021/03/26 10:55:26;;;;;;;41.38;15.13;;;16.30;50.00;;;;;;5047355;28;20056;-59
2021/03/26 10:58:07;;;;;;;37.78;13.82;;;16.30;50.50;;;;;;5043559;28;20473;-62
2021/03/26 11:00:43;;;;;;;39.40;14.63;;;16.30;50.60;;;;;;5033064;28;20051;-60
2021/03/26 11:03:18;;;;;;;37.95;14.57;;;16.20;50.90;;;;;;5026589;28;20057;-61
2021/03/26 11:05:52;;;;;;;32.95;12.88;;;16.40;50.80;;;;;;5046640;28;20047;-60
2021/03/26 11:08:34;;;;;;;40.75;15.35;;;16.20;50.20;;;;;;5037882;28;20045;-62
2021/03/26 11:11:03;;;;;;;40.88;13.65;;;16.30;50.30;;;;;;5045724;28;20056;-60
2021/03/26 11:14:03;;;;;;;36.92;13.50;;;16.50;51.00;;;;;;5058624;28;20488;-61
2021/03/26 11:16:29;;;;;;;33.63;14.27;;;16.70;50.20;;;;;;5026853;28;20061;-60
2021/03/26 11:19:00;;;;;;;37.92;15.25;;;16.80;49.60;;;;;;5016909;28;20042;-60
2021/03/26 11:21:45;;;;;;;33.38;13.85;;;16.90;48.50;;;;;;5041606;28;20047;-59
2021/03/26 11:24:13;;;;;;;41.08;14.32;;;16.80;48.30;;;;;;5045991;28;20060;-59
2021/03/26 11:26:51;;;;;;;39.50;14.68;;;16.90;48.80;;;;;;5046894;28;20550;-59
2021/03/26 11:29:23;;;;;;;33.17;12.65;;;17.00;48.00;;;;;;5027291;28;20060;-60
2021/03/26 11:32:17;;;;;;;34.45;13.80;;;17.10;48.00;;;;;;5043154;28;20047;-60
2021/03/26 11:35:00;;;;;;;35.15;13.32;;;17.20;48.00;;;;;;5045435;28;20052;-60
2021/03/26 11:38:08;;;;;;;38.65;14.48;;;17.50;47.30;;;;;;5016850;28;20051;-60
2021/03/26 11:41:02;;;;;;;37.45;15.20;;;17.80;46.50;;;;;;5048574;28;20052;-60
2021/03/26 11:43:42;;;;;;;37.28;13.60;;;18.00;47.30;;;;;;5028394;28;20456;-59
2021/03/26 11:46:22;;;;;;;33.53;13.85;;;18.30;46.60;;;;;;5022274;28;20049;-58
2021/03/26 11:48:59;;;;;;;37.83;14.85;;;18.40;46.00;;;;;;5026274;28;20127;-58
2021/03/26 11:51:45;;;;;;;40.60;14.45;;;18.30;46.70;;;;;;5047032;28;20052;-59
2021/03/26 11:54:23;;;;;;;36.45;14.93;;;18.30;46.60;;;;;;5023780;28;20076;-59
2021/03/26 11:56:55;;;;;;;41.47;16.45;;;18.10;46.40;;;;;;5024311;28;20456;-60
2021/03/26 11:59:22;;;;;;;;;;;17.90;46.70;;;;;;5040577;28;20042;-59
2021/03/26 12:01:59;;;;;;;41.78;15.68;;;18.10;47.00;;;;;;5047734;28;19924;-60
2021/03/26 12:04:59;;;;;;;33.42;12.95;;;18.40;46.60;;;;;;5012438;28;20096;-60
2021/03/26 12:08:50;;;;;;;33.50;15.93;;;18.80;46.10;;;;;;5036559;28;20090;-63
2021/03/26 12:11:30;;;;;;;34.55;14.18;;;19.60;44.00;;;;;;4986630;28;20442;-62
2021/03/26 12:14:08;;;;;;;37.95;15.02;;;19.90;43.20;;;;;;4960255;28;20075;-64
2021/03/26 12:17:04;;;;;;;41.03;17.58;;;20.20;43.30;;;;;;4966516;28;20046;-60
2021/03/26 12:19:34;;;;;;;37.25;15.85;;;20.40;42.10;;;;;;4953909;28;20051;-60
2021/03/26 12:22:41;;;;;;;34.50;14.40;;;20.70;41.40;;;;;;4982408;28;20097;-62
2021/03/26 12:25:26;;;;;;;37.45;15.85;;;21.10;41.60;;;;;;4945720;29;20132;-61
2021/03/26 12:27:55;;;;;;;36.67;15.02;;;21.80;39.80;;;;;;4946970;29;20411;-59
2021/03/26 12:30:36;;;;;;;37.38;15.15;;;22.20;39.10;;;;;;4946846;29;20059;-60
2021/03/26 12:34:02;;;;;;;39.80;16.40;;;22.60;39.10;;;;;;4944222;28;20047;-59
2021/03/26 12:36:38;;;;;;;39.42;17.13;;;23.10;38.80;;;;;;4937313;29;20062;-62
2021/03/26 12:39:07;;;;;;;38.75;15.57;;;23.70;37.30;;;;;;4941666;29;20434;-64
2021/03/26 12:41:48;;;;;;;40.40;16.30;;;24.30;36.40;;;;;;4943541;28;20139;-61
2021/03/26 12:44:24;;;;;;;40.50;16.85;;;24.60;35.70;;;;;;4944326;28;20058;-62
2021/03/26 12:47:18;;;;;;;37.65;16.08;;;24.90;35.50;;;;;;4966879;28;20065;-62
2021/03/26 12:49:53;;;;;;;40.97;17.23;;;25.30;34.80;;;;;;4957503;28;20047;-63
2021/03/26 12:52:44;;;;;;;39.38;16.30;;;25.50;34.20;;;;;;4978842;28;20065;-61
2021/03/26 12:55:41;;;;;;;36.00;15.18;;;25.10;34.10;;;;;;4984232;28;20054;-62
2021/03/26 12:58:19;;;;;;;38.78;17.35;;;25.40;34.80;;;;;;4978006;28;20054;-61
2021/03/26 13:00:54;;;;;;;36.38;16.02;;;25.70;33.80;;;;;;4988099;28;20041;-62
2021/03/26 13:04:02;;;;;;;36.00;15.80;;;26.30;33.10;;;;;;5030575;28;20496;-61
2021/03/26 13:06:32;;;;;;;35.83;16.05;;;26.40;33.10;;;;;;5035533;28;20056;-62
2021/03/26 13:09:22;;;;;;;33.22;15.85;;;26.60;32.50;;;;;;5028643;28;20045;-62
2021/03/26 13:12:06;;;;;;;33.22;16.13;;;26.90;32.50;;;;;;5025313;28;20037;-61
2021/03/26 13:14:45;;;;;;;33.90;14.60;;;27.30;31.80;;;;;;5041768;28;20037;-62
2021/03/26 13:17:32;;;;;;;32.25;16.40;;;27.70;30.90;;;;;;5033146;28;20060;-62
2021/03/26 13:20:13;;;;;;;36.40;16.85;;;27.70;31.00;;;;;;5018544;28;20853;-61
2021/03/26 13:22:52;;;;;;;31.92;15.52;;;27.50;30.30;;;;;;5028256;28;20053;-61
2021/03/26 13:25:53;;;;;;;35.63;16.38;;;27.20;31.40;;;;;;5039437;28;20048;-62
2021/03/26 13:28:27;;;;;;;34.75;16.45;;;27.30;30.90;;;;;;5032536;28;20632;-61
2021/03/26 13:31:07;;;;;;;34.65;16.50;;;27.50;31.00;;;;;;5049812;28;20037;-63
2021/03/26 13:33:54;;;;;;;37.85;15.38;;;27.60;30.60;;;;;;5048814;28;20051;-65
2021/03/26 13:36:40;;;;;;;30.60;13.88;;;27.70;31.50;;;;;;5043270;28;20547;-63
2021/03/26 13:40:07;;;;;;;34.22;14.93;;;27.90;31.50;;;;;;5041769;28;20487;-64
2021/03/26 13:42:39;;;;;;;31.85;16.60;;;28.20;30.00;;;;;;5021789;28;20053;-61
2021/03/26 13:45:16;;;;;;;33.63;16.50;;;28.50;30.60;;;;;;5017520;28;20059;-62
2021/03/26 13:48:16;;;;;;;30.42;15.18;;;28.80;29.90;;;;;;5033881;28;20523;-65
2021/03/26 13:51:06;;;;;;;33.13;15.00;;;29.20;29.50;;;;;;5041824;28;20048;-65
2021/03/26 13:53:34;;;;;;;31.02;14.30;;;29.40;29.30;;;;;;5040843;28;20064;-62
2021/03/26 13:56:10;;;;;;;29.90;14.07;;;29.40;29.10;;;;;;5049861;28;20072;-63
2021/03/26 13:58:40;;;;;;;31.73;15.18;;;29.30;28.50;;;;;;5031654;28;20049;-61